Time;durP1;ratioP1;P1;durP2;ratioP2;P2;SDS_P1;SDS_P2;PMS_P1;PMS_P2;Temp;Humidity;BMP_temperature;BMP_pressure;BME280_temperature;BME280_humidity;BME280_pressure;Samples;Min_cycle;Max_cycle;Signal;HPM_P1;HPM_P2
2022/09/18 00:01:32;;;;;;;2.07;0.93;;;;;;;11.92;71.39;98724.91;5095803;28;42472;-82
2022/09/18 00:04:03;;;;;;;2.60;0.93;;;;;;;11.86;71.35;98713.78;5080744;28;40990;-82
2022/09/18 00:06:32;;;;;;;3.67;0.70;;;;;;;11.94;71.41;98715.88;5080070;28;40526;-81
2022/09/18 00:09:04;;;;;;;3.90;1.20;;;;;;;11.85;71.41;98705.94;5096574;28;42479;-82
2022/09/18 00:11:35;;;;;;;2.60;1.00;;;;;;;11.96;71.50;98724.59;5095128;28;42544;-85
2022/09/18 00:14:05;;;;;;;2.27;1.20;;;;;;;11.85;71.44;98701.47;5092089;28;40027;-85
2022/09/18 00:16:33;;;;;;;2.87;0.93;;;;;;;11.95;71.93;98716.75;5094636;28;41269;-82
2022/09/18 00:19:01;;;;;;;2.43;0.97;;;;;;;11.88;72.11;98714.50;5094868;28;41248;-85
2022/09/18 00:21:30;;;;;;;1.97;0.97;;;;;;;11.83;72.08;98721.97;5094467;28;43854;-85
2022/09/18 00:24:00;;;;;;;0.97;0.80;;;;;;;11.84;72.69;98722.81;5094435;28;38919;-85
2022/09/18 00:26:28;;;;;;;1.83;1.10;;;;;;;11.69;72.93;98700.81;5094188;28;40824;-84
2022/09/18 00:28:57;;;;;;;3.40;1.10;;;;;;;11.71;73.40;98703.34;5078382;28;41903;-84
2022/09/18 00:31:29;;;;;;;4.07;1.20;;;;;;;11.71;73.95;98713.97;5078603;28;41319;-82
2022/09/18 00:33:59;;;;;;;3.63;1.07;;;;;;;11.70;73.91;98712.25;5078086;28;38737;-89
2022/09/18 00:36:28;;;;;;;2.87;1.13;;;;;;;11.59;74.04;98705.06;5078136;28;40757;-83
2022/09/18 00:38:58;;;;;;;3.43;1.47;;;;;;;11.61;74.78;98697.84;5077753;28;43158;-86
2022/09/18 00:41:28;;;;;;;3.90;1.17;;;;;;;11.69;74.39;98706.13;5094611;28;41114;-85
2022/09/18 00:44:33;;;;;;;1.53;1.10;;;;;;;11.72;75.41;98710.34;5095234;28;40647;-83
2022/09/18 00:47:08;;;;;;;2.10;1.07;;;;;;;11.71;74.85;98713.97;5093785;28;42544;-79
2022/09/18 00:49:38;;;;;;;4.17;1.40;;;;;;;11.69;75.85;98710.56;5077588;28;41766;-87
2022/09/18 00:52:07;;;;;;;1.53;1.10;;;;;;;11.60;76.81;98692.63;5077403;28;42725;-84
2022/09/18 00:54:37;;;;;;;1.57;1.00;;;;;;;11.57;76.17;98691.03;5113251;28;40939;-84
2022/09/18 00:57:09;;;;;;;2.87;1.20;;;;;;;11.67;76.58;98705.38;5078234;28;41920;-81
2022/09/18 00:59:38;;;;;;;4.33;0.97;;;;;;;11.57;76.05;98695.50;5094680;28;41583;-83
2022/09/18 01:02:07;;;;;;;3.93;1.33;;;;;;;11.67;76.04;98715.97;5094533;28;42956;-85
2022/09/18 01:04:35;;;;;;;2.90;1.17;;;;;;;11.57;76.45;98688.41;5095027;28;40594;-82
2022/09/18 01:07:15;;;;;;;4.00;0.90;;;;;;;11.65;76.54;98715.22;5094430;28;41428;-82
2022/09/18 01:09:56;;;;;;;3.70;1.20;;;;;;;11.58;76.52;98698.03;5095676;28;42816;-85
2022/09/18 01:12:33;;;;;;;5.77;1.13;;;;;;;11.54;76.48;98696.56;5093275;28;42101;-88
2022/09/18 01:15:09;;;;;;;3.53;1.00;;;;;;;11.64;76.50;98708.22;5078334;28;39168;-81
2022/09/18 01:17:44;;;;;;;3.20;1.23;;;;;;;11.64;76.65;98702.91;5095278;28;41909;-85
2022/09/18 01:20:46;;;;;;;2.80;0.90;;;;;;;11.64;76.97;98718.84;5092389;28;42395;-83
2022/09/18 01:23:35;;;;;;;2.57;0.93;;;;;;;11.56;76.85;98699.97;5062706;28;43227;-86
2022/09/18 01:26:17;;;;;;;4.20;0.90;;;;;;;11.56;76.61;98694.66;5092692;28;40321;-83
2022/09/18 01:28:54;;;;;;;3.83;1.17;;;;;;;11.59;76.43;98698.91;5092070;28;41704;-83
2022/09/18 01:31:29;;;;;;;4.23;1.00;;;;;;;11.71;76.25;98706.00;5093091;28;43589;-83
2022/09/18 01:34:03;;;;;;;2.60;1.20;;;;;;;11.56;75.95;98683.19;5092664;28;43202;-84
2022/09/18 01:36:37;;;;;;;4.80;1.40;;;;;;;11.73;76.04;98707.59;5076294;28;40429;-83
2022/09/18 01:39:13;;;;;;;3.43;1.33;;;;;;;11.65;75.77;98688.69;5090948;28;41326;-82
2022/09/18 01:41:49;;;;;;;3.93;1.00;;;;;;;11.60;75.61;98674.94;5093644;28;44362;-86
2022/09/18 01:44:23;;;;;;;3.57;1.00;;;;;;;11.64;75.50;98689.66;5076880;28;42590;-84
2022/09/18 01:46:52;;;;;;;6.07;1.00;;;;;;;11.74;75.35;98703.16;5078296;28;41013;-85
2022/09/18 01:49:26;;;;;;;2.83;1.20;;;;;;;11.65;75.57;98688.69;5095275;28;40728;-82
2022/09/18 01:52:00;;;;;;;3.00;1.20;;;;;;;11.72;75.47;98695.28;5077680;28;44253;-80
2022/09/18 01:54:32;;;;;;;3.40;1.30;;;;;;;11.59;75.87;98680.34;5078235;28;42212;-80
2022/09/18 01:57:12;;;;;;;3.33;1.20;;;;;;;11.61;75.88;98686.38;5093810;28;40217;-83
2022/09/18 01:59:44;;;;;;;3.07;1.07;;;;;;;11.76;75.53;98707.41;5078037;28;40833;-88
2022/09/18 02:02:19;;;;;;;5.73;1.40;;;;;;;11.79;75.33;98696.59;5077929;28;41760;-83
2022/09/18 02:04:49;;;;;;;7.60;1.60;;;;;;;11.82;75.10;98695.53;5078014;28;41073;-82
2022/09/18 02:07:21;;;;;;;1.37;1.00;;;;;;;11.76;75.42;98683.53;5077268;28;41850;-85
2022/09/18 02:09:49;;;;;;;5.03;1.40;;;;;;;11.91;75.33;98701.97;5077473;28;41882;-85
2022/09/18 02:12:21;;;;;;;2.60;1.07;;;;;;;11.93;75.10;98708.88;5094204;28;43732;-84
2022/09/18 02:14:57;;;;;;;2.33;1.13;;;;;;;11.98;74.81;98712.06;5089669;28;42446;-83
2022/09/18 02:17:41;;;;;;;2.00;1.07;;;;;;;11.93;74.05;98686.81;5076415;28;40080;-85
2022/09/18 02:20:18;;;;;;;2.13;1.23;;;;;;;12.07;74.22;98707.91;5093354;28;40703;-83
2022/09/18 02:22:48;;;;;;;3.87;1.50;;;;;;;12.11;74.35;98704.09;5076497;28;42006;-85
2022/09/18 02:25:20;;;;;;;1.60;1.13;;;;;;;12.12;74.05;98703.09;5081896;28;42072;-85
2022/09/18 02:27:50;;;;;;;3.03;1.27;;;;;;;12.04;73.89;98685.09;5097373;28;40816;-83
2022/09/18 02:30:20;;;;;;;2.70;1.10;;;;;;;12.13;73.73;98697.69;5098223;28;42880;-84
2022/09/18 02:32:48;;;;;;;5.70;1.53;;;;;;;12.10;74.14;98692.63;5081082;28;42640;-85
2022/09/18 02:35:16;;;;;;;3.93;1.40;;;;;;;12.15;73.66;98702.91;5097670;28;43240;-85
2022/09/18 02:37:55;;;;;;;2.83;1.47;;;;;;;12.09;74.04;98700.69;5079686;28;39912;-81
2022/09/18 02:40:34;;;;;;;4.23;1.20;;;;;;;12.11;73.70;98690.81;5094452;28;41537;-83
2022/09/18 02:43:15;;;;;;;1.77;1.10;;;;;;;12.10;73.96;98687.31;5080019;28;41360;-85
2022/09/18 02:45:53;;;;;;;2.13;1.20;;;;;;;11.98;73.88;98668.75;5079591;28;41547;-80
2022/09/18 02:48:38;;;;;;;3.13;1.37;;;;;;;12.09;74.13;98688.28;5094852;28;40678;-84
2022/09/18 02:51:14;;;;;;;4.77;1.20;;;;;;;11.99;73.73;98675.78;5081719;28;42209;-84
2022/09/18 02:53:48;;;;;;;2.13;1.20;;;;;;;12.08;73.97;98691.03;5094538;28;42720;-87
2022/09/18 02:56:22;;;;;;;1.63;1.03;;;;;;;12.11;73.65;98690.81;5098311;28;41501;-88
2022/09/18 02:58:55;;;;;;;2.93;1.50;;;;;;;12.12;73.47;98692.50;5081115;28;41751;-85
2022/09/18 03:01:27;;;;;;;2.60;1.40;;;;;;;12.02;73.75;98672.88;5095451;28;42501;-82
2022/09/18 03:04:03;;;;;;;3.17;1.30;;;;;;;12.11;73.55;98689.03;5094132;28;42737;-85
2022/09/18 03:06:42;;;;;;;1.90;1.03;;;;;;;12.02;73.32;98670.22;5079986;28;42564;-86
2022/09/18 03:09:10;;;;;;;4.00;1.33;;;;;;;12.03;73.16;98667.47;5080091;28;40544;-85
2022/09/18 03:11:37;;;;;;;2.60;1.00;;;;;;;11.93;73.29;98654.97;5080077;28;40394;-87
2022/09/18 03:14:05;;;;;;;3.10;1.10;;;;;;;12.07;73.08;98674.25;5080189;28;41787;-86
2022/09/18 03:16:34;;;;;;;2.13;1.07;;;;;;;11.94;73.46;98661.97;5078699;28;41249;-87
2022/09/18 03:19:02;;;;;;;2.47;1.20;;;;;;;12.05;73.44;98675.31;5095398;28;40375;-84
2022/09/18 03:21:30;;;;;;;3.13;1.37;;;;;;;12.04;73.49;98679.78;5078857;28;41011;-84
2022/09/18 03:23:58;;;;;;;1.93;1.20;;;;;;;12.05;73.59;98683.28;5078454;28;41688;-88
2022/09/18 03:26:30;;;;;;;3.33;1.00;;;;;;;12.03;73.40;98679.88;5078471;28;41112;-84
2022/09/18 03:28:58;;;;;;;2.40;1.07;;;;;;;12.01;73.35;98679.13;5078634;28;42295;-82
2022/09/18 03:31:28;;;;;;;1.50;1.07;;;;;;;11.99;73.29;98681.06;5078315;28;40900;-85
2022/09/18 03:33:57;;;;;;;3.57;1.20;;;;;;;11.95;73.12;98679.59;5078860;27;44442;-85
2022/09/18 03:36:25;;;;;;;2.80;0.90;;;;;;;11.97;73.26;98683.00;5094677;28;43207;-87
2022/09/18 03:38:54;;;;;;;3.67;1.20;;;;;;;11.85;73.21;98664.31;5095556;28;39928;-88
2022/09/18 03:41:23;;;;;;;3.90;1.40;;;;;;;11.99;73.12;98686.38;5095761;28;41739;-84
2022/09/18 03:43:51;;;;;;;2.53;1.07;;;;;;;11.99;73.46;98686.38;5095698;28;43029;-86
2022/09/18 03:46:22;;;;;;;2.37;1.83;;;;;;;12.00;73.35;98688.06;5077752;28;43181;-87
2022/09/18 03:48:52;;;;;;;1.70;0.87;;;;;;;12.02;73.25;98687.00;5092789;28;40136;-84
2022/09/18 03:51:23;;;;;;;2.27;1.00;;;;;;;12.02;72.92;98687.00;5078093;28;41814;-86
2022/09/18 03:53:51;;;;;;;2.00;1.00;;;;;;;12.06;72.75;98698.25;5078429;28;42221;-82
2022/09/18 03:56:29;;;;;;;3.43;1.03;;;;;;;12.05;73.01;98688.59;5078464;28;43489;-89
2022/09/18 03:59:09;;;;;;;1.10;0.87;;;;;;;12.10;73.07;98697.09;5078630;28;40417;-80
2022/09/18 04:01:57;;;;;;;3.07;0.90;;;;;;;12.12;72.75;98692.50;5094556;28;43109;-86
2022/09/18 04:04:28;;;;;;;4.23;1.20;;;;;;;12.12;72.79;98697.78;5095768;28;43202;-86
2022/09/18 04:07:15;;;;;;;2.23;0.80;;;;;;;12.12;72.74;98692.50;5095710;28;41334;-82
2022/09/18 04:10:15;;;;;;;2.80;1.10;;;;;;;12.00;72.79;98670.31;5096465;28;39994;-84
2022/09/18 04:12:46;;;;;;;3.70;1.20;;;;;;;12.08;72.67;98688.38;5096906;28;41713;-88
2022/09/18 04:15:27;;;;;;;4.70;1.60;;;;;;;12.03;72.87;98667.47;5079000;28;44445;-82
2022/09/18 04:17:54;;;;;;;2.60;1.10;;;;;;;12.17;72.84;98701.00;5096443;28;42272;-88
2022/09/18 04:20:22;;;;;;;3.73;2.00;;;;;;;12.16;72.56;98696.63;5079435;28;39718;-86
2022/09/18 04:22:52;;;;;;;2.83;0.97;;;;;;;12.18;72.72;98708.00;5078748;28;40997;-82
2022/09/18 04:25:19;;;;;;;2.27;0.90;;;;;;;12.20;72.21;98701.63;5078983;28;41838;-83
2022/09/18 04:27:48;;;;;;;0.97;0.73;;;;;;;12.23;72.54;98701.41;5096607;28;42943;-86
2022/09/18 04:30:18;;;;;;;4.43;1.50;;;;;;;12.27;72.07;98704.69;5079248;28;38849;-84
2022/09/18 04:32:48;;;;;;;1.27;1.00;;;;;;;12.30;72.42;98700.97;5078746;28;40858;-83
2022/09/18 04:35:17;;;;;;;1.00;0.70;;;;;;;12.29;72.44;98702.75;5096256;28;44826;-88
2022/09/18 04:37:45;;;;;;;1.80;1.00;;;;;;;12.31;72.48;98703.50;5078148;28;41400;-82
2022/09/18 04:40:15;;;;;;;2.87;0.90;;;;;;;12.15;72.55;98679.84;5094835;28;40911;-84
2022/09/18 04:42:43;;;;;;;0.87;0.80;;;;;;;12.23;73.16;98700.56;5094573;28;42138;-81
2022/09/18 04:45:11;;;;;;;1.90;0.83;;;;;;;12.21;73.05;98707.78;5095328;28;42806;-83
2022/09/18 04:47:41;;;;;;;2.50;1.10;;;;;;;12.17;73.39;98704.50;5077604;28;42308;-83
2022/09/18 04:50:10;;;;;;;2.03;0.90;;;;;;;12.15;73.45;98698.44;5113296;28;40016;-85
2022/09/18 04:52:57;;;;;;;1.10;0.70;;;;;;;12.04;73.77;98685.09;5094585;28;41699;-86
2022/09/18 04:55:27;;;;;;;2.10;0.70;;;;;;;12.09;74.27;98692.72;5095477;28;42717;-85
2022/09/18 04:57:56;;;;;;;2.00;0.80;;;;;;;12.05;74.05;98680.63;5077576;28;41138;-86
2022/09/18 05:00:24;;;;;;;2.00;0.93;;;;;;;12.11;73.85;98698.78;5095767;28;39998;-82
2022/09/18 05:02:52;;;;;;;2.33;0.90;;;;;;;12.05;74.49;98699.22;5094230;28;41485;-80
2022/09/18 05:05:24;;;;;;;3.73;0.87;;;;;;;12.00;74.80;98693.38;5076995;28;43126;-83
2022/09/18 05:07:52;;;;;;;1.67;0.70;;;;;;;11.79;75.11;98670.06;5093609;28;43170;-81
2022/09/18 05:10:23;;;;;;;1.43;1.00;;;;;;;12.02;75.03;98699.41;5077411;28;40821;-87
2022/09/18 05:12:53;;;;;;;2.20;0.80;;;;;;;11.90;75.43;98687.88;5077067;28;40596;-84
2022/09/18 05:15:21;;;;;;;1.80;0.80;;;;;;;11.93;75.41;98686.81;5094719;28;42796;-85
2022/09/18 05:17:59;;;;;;;3.90;0.90;;;;;;;11.98;75.79;98705.91;5079414;28;41043;-86
2022/09/18 05:20:26;;;;;;;1.83;0.90;;;;;;;11.76;75.72;98670.25;5078619;28;41234;-85
2022/09/18 05:22:56;;;;;;;4.00;1.30;;;;;;;11.92;77.00;98706.34;5077759;28;40574;-84
2022/09/18 05:25:26;;;;;;;1.50;0.83;;;;;;;11.80;76.75;98687.66;5078134;28;41899;-86
2022/09/18 05:27:56;;;;;;;1.77;0.90;;;;;;;11.88;77.01;98698.59;5094984;28;43213;-82
2022/09/18 05:30:27;;;;;;;3.37;1.00;;;;;;;11.87;77.06;98698.69;5092069;28;40057;-85
2022/09/18 05:33:00;;;;;;;1.23;0.77;;;;;;;11.87;76.77;98699.53;5094775;28;42619;-84
2022/09/18 05:35:32;;;;;;;2.73;0.90;;;;;;;11.85;77.31;98700.63;5091489;28;42861;-83
2022/09/18 05:38:01;;;;;;;1.27;0.73;;;;;;;11.75;77.44;98684.47;5077855;28;41711;-80
2022/09/18 05:40:33;;;;;;;2.40;0.80;;;;;;;11.84;77.76;98712.19;5094910;28;40934;-82
2022/09/18 05:43:03;;;;;;;2.30;0.80;;;;;;;11.86;77.51;98716.44;5077170;28;41479;-82
2022/09/18 05:45:34;;;;;;;2.23;1.00;;;;;;;11.78;77.59;98709.94;5076249;28;41681;-87
2022/09/18 05:48:07;;;;;;;1.37;1.00;;;;;;;11.85;77.69;98720.03;5077367;28;40997;-83
2022/09/18 05:50:36;;;;;;;1.77;0.77;;;;;;;11.85;77.98;98712.09;5078211;28;38699;-81
2022/09/18 05:53:07;;;;;;;2.30;0.70;;;;;;;11.76;77.74;98694.13;5077572;28;40794;-82
2022/09/18 05:55:45;;;;;;;1.97;1.03;;;;;;;11.90;77.92;98713.56;5077830;28;42030;-84
2022/09/18 05:58:16;;;;;;;1.30;0.90;;;;;;;11.91;77.81;98709.94;5078036;28;40819;-79
2022/09/18 06:00:44;;;;;;;3.67;0.93;;;;;;;11.92;77.85;98707.19;5081156;28;40852;-82
2022/09/18 06:03:19;;;;;;;0.77;0.77;;;;;;;11.94;78.04;98704.44;5081207;28;40604;-82
2022/09/18 06:05:52;;;;;;;1.23;0.90;;;;;;;11.95;77.79;98700.81;5097895;28;41933;-81
2022/09/18 06:08:21;;;;;;;0.93;0.87;;;;;;;11.86;77.92;98686.41;5095274;28;42105;-81
2022/09/18 06:10:49;;;;;;;1.87;0.80;;;;;;;11.91;77.47;98694.03;5116085;28;40187;-80
2022/09/18 06:13:18;;;;;;;1.50;0.90;;;;;;;11.98;78.02;98712.06;5098008;28;41546;-79
2022/09/18 06:15:52;;;;;;;1.77;1.50;;;;;;;11.94;78.08;98704.44;5113393;28;43580;-82
2022/09/18 06:18:29;;;;;;;1.37;1.27;;;;;;;11.99;77.93;98711.09;5079515;28;42344;-80
2022/09/18 06:20:59;;;;;;;1.20;0.97;;;;;;;11.98;78.31;98712.06;5096920;28;39495;-83
2022/09/18 06:23:29;;;;;;;2.03;1.07;;;;;;;11.86;78.18;98695.22;5079248;28;40956;-80
2022/09/18 06:26:07;;;;;;;2.73;0.80;;;;;;;11.99;78.52;98715.59;5080066;28;41578;-82
2022/09/18 06:28:38;;;;;;;1.73;0.77;;;;;;;11.90;78.04;98694.97;5093673;28;42289;-83
2022/09/18 06:31:06;;;;;;;1.73;1.20;;;;;;;12.00;78.41;98715.44;5079631;28;38789;-80
2022/09/18 06:34:09;;;;;;;2.17;1.17;;;;;;;12.02;78.21;98725.97;5014469;28;40783;-80
2022/09/18 06:36:37;;;;;;;2.93;0.80;;;;;;;11.95;78.24;98711.44;5066801;28;42836;-80
2022/09/18 06:39:20;;;;;;;5.30;1.30;;;;;;;11.99;78.70;98723.53;5079678;28;41264;-82
2022/09/18 06:41:51;;;;;;;1.77;1.00;;;;;;;11.99;78.75;98726.19;5079500;28;40345;-79
2022/09/18 06:44:24;;;;;;;2.30;1.20;;;;;;;12.00;78.48;98731.38;5079509;28;41014;-82
2022/09/18 06:47:07;;;;;;;1.60;0.80;;;;;;;12.02;78.70;98728.59;5079384;28;41726;-81
2022/09/18 06:49:42;;;;;;;1.87;1.00;;;;;;;12.01;78.72;98722.44;5079762;28;41161;-81
2022/09/18 06:52:12;;;;;;;1.87;0.60;;;;;;;12.00;78.62;98717.25;5096041;28;40905;-82
2022/09/18 06:54:41;;;;;;;2.03;0.90;;;;;;;11.90;78.95;98700.28;5079675;28;42057;-81
2022/09/18 06:57:08;;;;;;;0.90;0.80;;;;;;;12.02;78.75;98725.97;5079277;28;41871;-80
2022/09/18 06:59:38;;;;;;;1.47;0.80;;;;;;;12.01;78.54;98717.16;5079112;28;42847;-80
2022/09/18 07:02:12;;;;;;;2.73;0.80;;;;;;;12.04;79.10;98724.03;5078832;28;39034;-81
2022/09/18 07:04:59;;;;;;;3.53;1.00;;;;;;;11.97;78.98;98709.53;5093203;28;41671;-80
2022/09/18 07:07:27;;;;;;;1.03;0.73;;;;;;;12.04;78.40;98726.69;5095760;28;42707;-79
2022/09/18 07:09:56;;;;;;;2.03;1.23;;;;;;;12.08;78.77;98729.03;5079437;28;41233;-80
2022/09/18 07:12:28;;;;;;;1.30;1.20;;;;;;;12.11;78.53;98730.63;5115227;28;40959;-82
2022/09/18 07:14:58;;;;;;;1.77;0.83;;;;;;;12.10;78.42;98727.13;5080199;28;40549;-79
2022/09/18 07:17:27;;;;;;;1.00;0.80;;;;;;;12.01;78.58;98719.78;5079789;28;41708;-80
2022/09/18 07:19:57;;;;;;;1.27;1.07;;;;;;;12.16;78.24;98733.81;5079936;28;42551;-78
2022/09/18 07:22:35;;;;;;;0.83;0.80;;;;;;;12.19;78.38;98733.59;5079861;28;39375;-81
2022/09/18 07:25:04;;;;;;;0.90;0.77;;;;;;;12.19;77.80;98736.25;5079620;28;42213;-79
2022/09/18 07:27:32;;;;;;;1.17;0.70;;;;;;;12.06;78.38;98708.88;5079555;28;44353;-81
2022/09/18 07:30:02;;;;;;;1.57;0.80;;;;;;;12.22;77.92;98730.72;5114965;28;43207;-81
2022/09/18 07:32:29;;;;;;;1.63;0.57;;;;;;;12.26;78.06;98736.63;5079540;28;38825;-81
2022/09/18 07:34:59;;;;;;;0.90;0.80;;;;;;;12.21;77.76;98724.56;5079682;28;40319;-78
2022/09/18 07:37:32;;;;;;;2.43;0.80;;;;;;;12.37;77.57;98734.06;5095816;28;42811;-82
2022/09/18 07:40:15;;;;;;;1.60;0.80;;;;;;;12.44;77.62;98741.50;5076932;28;42161;-79
2022/09/18 07:43:07;;;;;;;5.70;1.03;;;;;;;12.53;77.42;98740.84;5078375;28;41891;-80
2022/09/18 07:45:38;;;;;;;1.10;0.80;;;;;;;12.65;77.24;98743.56;5078383;28;42012;-80
2022/09/18 07:48:07;;;;;;;2.67;0.60;;;;;;;12.72;77.00;98748.31;5095617;28;44133;-80
2022/09/18 07:50:40;;;;;;;1.23;0.73;;;;;;;12.82;76.65;98751.16;5078432;28;41393;-80
2022/09/18 07:53:10;;;;;;;1.27;0.73;;;;;;;12.92;76.16;98754.81;5078237;28;40156;-81
2022/09/18 07:55:46;;;;;;;0.83;0.70;;;;;;;13.02;75.97;98747.88;5077984;28;40742;-80
2022/09/18 07:58:14;;;;;;;2.83;0.80;;;;;;;12.98;75.44;98724.31;5078244;28;42846;-82
2022/09/18 08:01:07;;;;;;;1.37;0.80;;;;;;;13.18;75.35;98747.63;5086934;28;41264;-79
2022/09/18 08:03:41;;;;;;;0.90;0.70;;;;;;;13.23;74.95;98746.28;5091904;28;39932;-80
2022/09/18 08:06:12;;;;;;;1.50;0.70;;;;;;;13.23;74.64;98751.59;5094891;28;41808;-80
2022/09/18 08:09:19;;;;;;;0.83;0.67;;;;;;;13.29;74.64;98743.19;5013673;28;42875;-82
2022/09/18 08:11:58;;;;;;;2.07;0.73;;;;;;;13.33;74.13;98742.97;4996877;28;41234;-81
2022/09/18 08:14:46;;;;;;;0.83;0.70;;;;;;;13.38;73.48;98741.63;5035215;28;38510;-82
2022/09/18 08:17:25;;;;;;;1.43;0.80;;;;;;;13.53;72.72;98756.44;5093645;28;41823;-81
2022/09/18 08:20:10;;;;;;;0.50;0.50;;;;;;;13.64;72.76;98752.94;5078943;28;43323;-80
2022/09/18 08:22:47;;;;;;;1.17;0.60;;;;;;;13.78;72.21;98758.06;5078847;28;41193;-82
2022/09/18 08:25:16;;;;;;;1.67;0.67;;;;;;;13.94;71.97;98747.94;5078599;28;41352;-83
2022/09/18 08:27:47;;;;;;;1.73;0.70;;;;;;;14.06;70.82;98750.59;5079019;28;40646;-81
2022/09/18 08:30:19;;;;;;;1.80;0.70;;;;;;;14.17;70.50;98758.59;5092715;28;43917;-79
2022/09/18 08:32:57;;;;;;;0.97;0.60;;;;;;;14.21;69.74;98770.72;5095658;28;41406;-81
2022/09/18 08:35:26;;;;;;;1.97;0.70;;;;;;;14.08;69.61;98748.69;5078680;28;39878;-82
2022/09/18 08:37:56;;;;;;;0.77;0.57;;;;;;;14.16;70.05;98763.06;5078941;28;40514;-82
2022/09/18 08:40:49;;;;;;;1.73;0.57;;;;;;;14.05;70.20;98759.56;5092632;28;42704;-82
2022/09/18 08:43:34;;;;;;;1.37;0.60;;;;;;;14.03;70.29;98757.84;5092321;28;43318;-79
2022/09/18 08:46:06;;;;;;;3.33;0.70;;;;;;;13.94;69.46;98750.59;5078230;28;40296;-81
2022/09/18 08:48:39;;;;;;;1.07;0.60;;;;;;;14.00;69.91;98763.41;5076460;28;40728;-80
2022/09/18 08:51:16;;;;;;;1.27;0.70;;;;;;;13.92;70.32;98763.19;5092102;28;42846;-82
2022/09/18 08:53:50;;;;;;;1.30;0.83;;;;;;;13.90;70.07;98764.25;5078045;28;42414;-79
2022/09/18 08:56:56;;;;;;;1.43;0.70;;;;;;;13.70;70.14;98741.84;5013933;28;40255;-80
2022/09/18 08:59:42;;;;;;;2.07;0.50;;;;;;;13.78;70.84;98747.41;5088034;28;41723;-82
2022/09/18 09:02:30;;;;;;;1.97;0.60;;;;;;;13.80;70.95;98745.50;5078540;28;41581;-82
2022/09/18 09:05:04;;;;;;;2.13;0.50;;;;;;;13.90;70.25;98750.94;5076168;28;42857;-82
2022/09/18 09:08:03;;;;;;;2.20;0.80;;;;;;;13.84;70.75;98754.09;5077877;28;38938;-80
2022/09/18 09:10:41;;;;;;;1.60;0.60;;;;;;;13.98;71.01;98754.69;5078291;28;42430;-83
2022/09/18 09:13:27;;;;;;;1.00;0.87;;;;;;;14.14;70.23;98745.50;5078087;28;43007;-80
2022/09/18 09:15:59;;;;;;;2.53;0.60;;;;;;;14.15;69.98;98729.41;5077370;28;43037;-82
2022/09/18 09:18:32;;;;;;;2.30;0.77;;;;;;;14.39;68.86;98758.59;5078255;28;39077;-80
2022/09/18 09:21:17;;;;;;;1.23;0.70;;;;;;;14.52;67.97;98759.34;5092965;28;42784;-80
2022/09/18 09:23:59;;;;;;;1.23;0.70;;;;;;;14.63;67.80;98755.81;5076262;28;42826;-81
2022/09/18 09:26:46;;;;;;;0.73;0.63;;;;;;;14.87;67.24;98747.63;5093292;28;40964;-81
2022/09/18 09:29:42;;;;;;;0.50;0.50;;;;;;;15.10;65.92;98770.59;5077184;28;40335;-84
2022/09/18 09:32:45;;;;;;;1.60;0.50;;;;;;;15.16;65.94;98758.59;5021360;28;40692;-82
2022/09/18 09:35:46;;;;;;;1.10;0.53;;;;;;;15.29;66.15;98769.94;5083641;28;43246;-81
2022/09/18 09:38:40;;;;;;;1.20;0.60;;;;;;;15.38;65.58;98770.00;5094300;28;42281;-80
2022/09/18 09:41:19;;;;;;;0.87;0.70;;;;;;;15.28;65.74;98769.09;5096974;28;40892;-80
2022/09/18 09:43:57;;;;;;;0.90;0.60;;;;;;;14.94;66.89;98732.84;5080389;28;41882;-86
2022/09/18 09:46:43;;;;;;;0.70;0.60;;;;;;;15.10;67.23;98759.91;5080187;28;42850;-84
2022/09/18 09:49:16;;;;;;;0.77;0.60;;;;;;;14.92;67.88;98740.13;5094459;28;43176;-82
2022/09/18 09:51:52;;;;;;;1.13;0.50;;;;;;;14.85;68.54;98738.91;5095473;28;39900;-86
2022/09/18 09:54:21;;;;;;;2.23;0.70;;;;;;;14.87;68.33;98748.47;5079956;28;40799;-83
2022/09/18 09:56:56;;;;;;;1.20;0.50;;;;;;;14.83;68.19;98743.53;5095600;28;43790;-87
2022/09/18 09:59:32;;;;;;;1.40;0.60;;;;;;;14.87;68.07;98742.28;5080083;28;43413;-82
2022/09/18 10:02:34;;;;;;;1.57;0.70;;;;;;;15.00;68.53;98753.66;5096285;28;38795;-82
2022/09/18 10:05:16;;;;;;;1.23;0.70;;;;;;;14.86;69.40;98732.59;5075523;28;42327;-82
2022/09/18 10:07:49;;;;;;;0.50;0.50;;;;;;;14.77;70.10;98730.69;5096498;28;42786;-88
2022/09/18 10:10:27;;;;;;;1.43;0.80;;;;;;;14.73;70.68;98736.28;5080021;28;40963;-79
2022/09/18 10:12:59;;;;;;;0.50;0.50;;;;;;;14.47;71.21;98737.53;5098180;28;39929;-85
2022/09/18 10:15:34;;;;;;;0.40;0.40;;;;;;;14.29;71.83;98731.00;5095792;28;41788;-83
2022/09/18 10:18:09;;;;;;;0.93;0.60;;;;;;;14.22;71.89;98740.41;5098488;28;43474;-85
2022/09/18 10:20:37;;;;;;;1.47;0.50;;;;;;;14.09;72.72;98740.56;5081254;28;41397;-83
2022/09/18 10:23:14;;;;;;;1.40;0.53;;;;;;;13.97;73.57;98737.03;5080674;28;41578;-82
2022/09/18 10:25:50;;;;;;;0.50;0.50;;;;;;;13.88;73.91;98721.78;5094623;28;41500;-80
2022/09/18 10:28:17;;;;;;;2.30;0.50;;;;;;;13.86;74.31;98721.03;5094827;28;43762;-79
2022/09/18 10:30:57;;;;;;;0.73;0.70;;;;;;;13.83;74.68;98723.97;5080733;28;42304;-82
2022/09/18 10:33:37;;;;;;;2.53;0.63;;;;;;;13.69;75.06;98710.88;5080862;28;40046;-81
2022/09/18 10:36:15;;;;;;;1.60;0.60;;;;;;;13.72;75.11;98726.63;5080503;28;41950;-79
2022/09/18 10:38:43;;;;;;;0.73;0.60;;;;;;;13.60;75.06;98700.91;5080433;28;41984;-81
2022/09/18 10:41:42;;;;;;;1.00;0.50;;;;;;;13.79;75.62;98721.66;5078456;28;41435;-80
2022/09/18 10:44:24;;;;;;;0.70;0.70;;;;;;;13.73;75.54;98706.16;5079025;28;40093;-81
2022/09/18 10:47:03;;;;;;;0.70;0.50;;;;;;;13.92;75.85;98717.91;5079228;28;41962;-82
2022/09/18 10:49:35;;;;;;;0.73;0.70;;;;;;;13.83;74.84;98697.34;5080601;28;41610;-81
2022/09/18 10:52:28;;;;;;;0.77;0.70;;;;;;;13.86;75.30;98707.72;5096033;28;43281;-81
2022/09/18 10:55:00;;;;;;;0.43;0.43;;;;;;;14.03;74.93;98720.59;5094549;28;40956;-83
2022/09/18 10:57:33;;;;;;;0.70;0.70;;;;;;;13.97;74.87;98699.75;5096910;28;41922;-82
2022/09/18 11:00:28;;;;;;;1.03;0.57;;;;;;;14.09;75.05;98708.63;5080680;28;41946;-82
2022/09/18 11:03:02;;;;;;;0.63;0.53;;;;;;;14.17;74.38;98694.69;5066432;28;42143;-82
2022/09/18 11:05:38;;;;;;;0.87;0.50;;;;;;;14.37;73.23;98686.78;5080321;28;40330;-82
2022/09/18 11:08:13;;;;;;;0.60;0.57;;;;;;;14.85;72.90;98712.25;5092639;28;41677;-84
2022/09/18 11:10:47;;;;;;;0.70;0.50;;;;;;;15.51;72.55;98703.09;5078588;28;41878;-81
2022/09/18 11:13:23;;;;;;;0.50;0.50;;;;;;;15.95;70.97;98677.09;5092795;28;42071;-81
2022/09/18 11:15:54;;;;;;;0.90;0.70;;;;;;;16.32;68.36;98680.06;5081015;28;41553;-79
2022/09/18 11:18:24;;;;;;;1.83;1.47;;;;;;;16.43;67.70;98687.97;5080750;27;41072;-78
2022/09/18 11:20:54;;;;;;;0.93;0.77;;;;;;;16.47;66.41;98690.22;5059220;28;41632;-82
2022/09/18 11:23:28;;;;;;;1.00;0.80;;;;;;;16.46;65.01;98674.31;5092032;27;42282;-81
2022/09/18 11:26:27;;;;;;;1.57;0.60;;;;;;;16.66;64.00;98688.59;5097875;27;39787;-78
2022/09/18 11:29:04;;;;;;;0.80;0.77;;;;;;;16.66;62.88;98702.81;5081153;27;41743;-82
2022/09/18 11:31:42;;;;;;;1.53;0.70;;;;;;;16.67;62.08;98699.16;5084595;28;42487;-78
2022/09/18 11:34:20;;;;;;;2.73;0.80;;;;;;;16.77;62.98;98692.00;5059532;28;42201;-78
2022/09/18 11:36:51;;;;;;;0.80;0.80;;;;;;;16.61;62.18;98691.66;5059429;28;40187;-80
2022/09/18 11:39:26;;;;;;;1.70;0.80;;;;;;;16.37;62.69;98677.81;5059087;28;42213;-82
2022/09/18 11:41:55;;;;;;;2.13;1.00;;;;;;;16.15;64.16;98685.06;5059050;28;41632;-81
2022/09/18 11:44:38;;;;;;;1.80;0.80;;;;;;;15.94;63.03;98686.94;5058862;28;42455;-82
2022/09/18 11:47:40;;;;;;;2.37;1.00;;;;;;;15.77;64.51;98663.53;5075791;28;40166;-79
2022/09/18 11:50:15;;;;;;;1.17;0.70;;;;;;;15.69;64.72;98672.22;5025447;28;42074;-84
2022/09/18 11:52:44;;;;;;;2.03;0.97;;;;;;;15.42;64.52;98662.03;5094101;28;43746;-79
2022/09/18 11:55:22;;;;;;;2.37;0.80;;;;;;;15.48;63.97;98676.66;5096317;28;42178;-79
2022/09/18 11:57:54;;;;;;;1.57;0.80;;;;;;;15.65;64.05;98675.25;5100678;28;40914;-81
2022/09/18 12:00:28;;;;;;;1.33;1.10;;;;;;;15.71;63.10;98661.38;5084005;28;40647;-81
2022/09/18 12:03:07;;;;;;;3.10;1.03;;;;;;;15.77;64.60;98663.53;5086053;28;42708;-82
2022/09/18 12:05:51;;;;;;;1.80;1.00;;;;;;;15.75;63.75;98671.66;5072634;28;43224;-80
2022/09/18 12:08:26;;;;;;;3.93;0.80;;;;;;;15.67;64.02;98662.63;5059156;28;39949;-85
2022/09/18 12:11:09;;;;;;;1.80;0.60;;;;;;;15.67;62.89;98667.97;5078560;28;42025;-85